Etusivu
METAR-TAF:

METAR-TAF

Lentoasemat :

Lappeenranta, Suomi

Lappeenrannan lentoasema

Leveyspiiri: 61-02-45N, Pituuspiiri: 028-08-55E, korkeus merenpinnasta: 106 m

Tämänhetkinen sää

Tämä raportti tehtiin 39 minuuttia sitten, kello 14.20 UTC
Tuuli 8 kn etelästä/kaakosta, vaihdellen idän/kaakon ja lounaan välillä
Lämpötila 2°C
Kosteus 100%
Ilmanpaine 1008 hPa
Näkyvyys: 2000 m
Pilvistä 200 ft:n korkeudessa
utua

METAR: EFLP 241420Z AUTO 16008KT 110V220 2000 BR OVC002 02/02 Q1008

Aika: 16:59 (14:59 UTC)


TAF: puuttuu

Säähavainnot ja -ennusteet yli 4000 lentoasemalta (METAR- ja TAF-raportit).

Käytössä olevat sääasemat on merkitty karttaan keltaisilla ja punaisilla pisteillä.

Aseta hiiri pisteen päälle nähdäksesi sääaseman nimen.

Klikkaa sitten nähdäksesi säähavainnot ja -ennusteet.

Kartan vaihtaminen: klikkaa mustalla rastilla varustettuja vihreitä pisteitä, niin voit zoomata sisään; viivalla varustettua vihreää pistettä, niin voit zoomata ulos tai vihreitä nuolia, niin pääset viereisille kartoille.


METAR-TAF: